Time;durP1;ratioP1;P1;durP2;ratioP2;P2;SDS_P1;SDS_P2;PMS_P1;PMS_P2;Temp;Humidity;BMP_temperature;BMP_pressure;BME280_temperature;BME280_humidity;BME280_pressure;Samples;Min_cycle;Max_cycle;Signal;HPM_P1;HPM_P2
2022/11/16 00:02:15;;;;;;;11.87;10.77;;;12.50;62.30;;;;;;20930;6738;117492;-75
2022/11/16 00:04:50;;;;;;;11.13;10.03;;;12.30;62.80;;;;;;20832;6753;119387;-75
2022/11/16 00:07:29;;;;;;;13.52;12.32;;;12.40;63.40;;;;;;20611;6753;311134;-75
2022/11/16 00:10:02;;;;;;;11.90;11.00;;;12.40;63.40;;;;;;20741;6736;118761;-75
2022/11/16 00:12:38;;;;;;;11.13;10.13;;;12.30;63.10;;;;;;20949;6722;117761;-75
2022/11/16 00:15:12;;;;;;;12.50;11.30;;;12.20;63.00;;;;;;20795;6505;276827;-74
2022/11/16 00:17:38;;;;;;;13.32;12.20;;;12.40;63.30;;;;;;20621;6795;278075;-75
2022/11/16 00:20:04;;;;;;;13.10;12.00;;;12.80;62.70;;;;;;20527;6784;309621;-76
2022/11/16 00:22:29;;;;;;;12.87;11.77;;;13.00;61.70;;;;;;20445;6863;279718;-75
2022/11/16 00:24:55;;;;;;;11.57;10.63;;;13.30;61.00;;;;;;20668;6863;121768;-75
2022/11/16 00:27:20;;;;;;;12.83;11.67;;;13.10;60.90;;;;;;20499;6843;278605;-76
2022/11/16 00:29:46;;;;;;;12.73;11.67;;;13.10;61.10;;;;;;20499;6844;308605;-75
2022/11/16 00:32:11;;;;;;;10.97;10.17;;;13.30;60.70;;;;;;20707;6844;119056;-76
2022/11/16 00:34:38;;;;;;;10.73;9.93;;;12.80;61.30;;;;;;20688;6848;117973;-75
2022/11/16 00:37:04;;;;;;;12.18;11.18;;;12.80;61.30;;;;;;20476;6848;309707;-78
2022/11/16 00:39:29;;;;;;;11.10;10.23;;;12.90;61.80;;;;;;20311;6854;339147;-76
2022/11/16 00:41:55;;;;;;;11.93;10.83;;;13.10;61.20;;;;;;20471;6853;338781;-75
2022/11/16 00:44:20;;;;;;;10.40;9.37;;;13.30;60.80;;;;;;20698;6850;118676;-76
2022/11/16 00:46:46;;;;;;;10.93;9.93;;;13.10;60.80;;;;;;20442;6864;338087;-75
2022/11/16 00:49:12;;;;;;;9.07;8.47;;;13.00;61.30;;;;;;20682;6850;121444;-76
2022/11/16 00:51:41;;;;;;;9.77;9.00;;;13.00;61.30;;;;;;20702;6850;118743;-76
2022/11/16 00:54:06;;;;;;;10.70;9.70;;;12.80;61.90;;;;;;20491;6850;306822;-76
2022/11/16 00:56:32;;;;;;;9.00;8.30;;;12.80;61.80;;;;;;20483;6850;308621;-75
2022/11/16 00:58:59;;;;;;;8.57;7.93;;;13.10;61.10;;;;;;20660;6864;118013;-75
2022/11/16 01:01:24;;;;;;;8.70;8.10;;;12.90;61.00;;;;;;20477;6850;278706;-76
2022/11/16 01:03:50;;;;;;;8.00;7.50;;;13.00;61.50;;;;;;20489;6850;307854;-76
2022/11/16 01:06:15;;;;;;;7.97;7.37;;;13.20;61.00;;;;;;20468;6851;283954;-76
2022/11/16 01:08:42;;;;;;;7.00;6.60;;;13.20;60.70;;;;;;20662;6859;118809;-75
2022/11/16 01:13:53;;;;;;;7.07;6.57;;;13.20;60.70;;;;;;20671;6864;118300;-76
2022/11/16 01:16:18;;;;;;;7.30;6.80;;;12.90;60.70;;;;;;20629;6869;117542;-76
2022/11/16 01:18:47;;;;;;;6.83;6.37;;;12.70;61.40;;;;;;20650;6866;117607;-76
2022/11/16 01:21:13;;;;;;;5.80;5.40;;;12.40;62.10;;;;;;20613;6855;118653;-76
2022/11/16 01:23:40;;;;;;;6.00;5.60;;;12.20;62.80;;;;;;20689;6855;121978;-76
2022/11/16 01:26:06;;;;;;;6.55;6.10;;;12.20;63.80;;;;;;20452;6861;278936;-76
2022/11/16 01:28:31;;;;;;;5.60;5.20;;;12.20;63.80;;;;;;20455;6862;308559;-76
2022/11/16 01:30:57;;;;;;;6.30;5.80;;;12.60;63.00;;;;;;20459;6862;278535;-76
2022/11/16 01:33:23;;;;;;;6.18;5.78;;;12.90;62.10;;;;;;20660;6855;146644;-77
2022/11/16 01:35:48;;;;;;;6.20;5.80;;;12.80;61.90;;;;;;20702;6855;117822;-76
2022/11/16 01:38:15;;;;;;;7.03;6.50;;;12.60;62.50;;;;;;20467;6855;333859;-76
2022/11/16 01:40:41;;;;;;;6.70;6.30;;;12.70;62.80;;;;;;20464;6864;278614;-76
2022/11/16 01:43:09;;;;;;;6.83;6.33;;;12.90;62.10;;;;;;20640;6864;121809;-77
2022/11/16 01:45:40;;;;;;;7.57;7.00;;;12.90;61.80;;;;;;20418;6864;323195;-77
2022/11/16 01:48:04;;;;;;;6.97;6.40;;;12.90;61.80;;;;;;20657;6864;117266;-77
2022/11/16 01:50:30;;;;;;;7.20;6.70;;;12.80;62.20;;;;;;20448;6864;309007;-77
2022/11/16 01:52:56;;;;;;;6.23;5.83;;;12.80;62.20;;;;;;20665;6864;116499;-77
2022/11/16 01:55:21;;;;;;;5.03;4.77;;;12.70;62.30;;;;;;20636;6864;118648;-77
2022/11/16 01:57:47;;;;;;;5.60;5.28;;;12.40;62.90;;;;;;20454;6864;311184;-77
2022/11/16 02:00:13;;;;;;;5.70;5.30;;;12.60;62.90;;;;;;20458;6864;278899;-77
2022/11/16 02:02:39;;;;;;;5.93;5.50;;;13.10;61.10;;;;;;20452;6865;308091;-77
2022/11/16 02:05:05;;;;;;;6.50;6.10;;;13.10;61.10;;;;;;20445;6865;307563;-78
2022/11/16 02:11:05;;;;;;;7.27;6.67;;;13.00;60.70;;;;;;20449;6865;312849;-75
2022/11/16 02:13:51;;;;;;;7.90;7.30;;;13.00;61.20;;;;;;19614;6865;310471;-77
2022/11/16 02:16:43;;;;;;;7.77;7.10;;;13.20;61.30;;;;;;20626;6865;117310;-76
2022/11/16 02:19:15;;;;;;;6.57;6.17;;;12.90;61.40;;;;;;20436;6865;308553;-76
2022/11/16 02:21:58;;;;;;;6.93;6.43;;;12.90;62.00;;;;;;20454;6865;308142;-76
2022/11/16 02:24:33;;;;;;;7.50;6.90;;;13.10;61.70;;;;;;20420;6865;278526;-76
2022/11/16 02:27:03;;;;;;;7.05;6.50;;;13.40;60.60;;;;;;20442;6865;311443;-75
2022/11/16 02:29:42;;;;;;;6.80;6.20;;;13.20;60.90;;;;;;20607;6865;118572;-75
2022/11/16 02:32:31;;;;;;;6.57;5.90;;;13.20;60.90;;;;;;20664;6865;117585;-75
2022/11/16 02:35:00;;;;;;;7.10;6.60;;;12.80;61.60;;;;;;20436;6865;315663;-75
2022/11/16 02:37:25;;;;;;;8.07;6.63;;;12.80;62.20;;;;;;20625;6863;118255;-76
2022/11/16 02:39:51;;;;;;;7.62;7.12;;;12.80;62.60;;;;;;20441;6864;282975;-76
2022/11/16 02:42:17;;;;;;;8.13;7.43;;;12.80;62.60;;;;;;20646;6864;121264;-75
2022/11/16 02:44:43;;;;;;;8.13;7.62;;;12.70;62.50;;;;;;20432;6864;283973;-75
2022/11/16 02:47:08;;;;;;;7.43;6.83;;;12.70;62.70;;;;;;20623;6864;118883;-76
2022/11/16 02:49:34;;;;;;;9.73;8.88;;;12.60;62.80;;;;;;20437;6864;338158;-76
2022/11/16 02:52:00;;;;;;;8.65;8.02;;;12.90;62.60;;;;;;20440;6864;316590;-75
2022/11/16 02:54:26;;;;;;;8.50;7.90;;;12.90;62.60;;;;;;20455;6864;309029;-75
2022/11/16 02:57:01;;;;;;;8.18;7.57;;;13.10;62.00;;;;;;20451;6864;299210;-75
2022/11/16 02:59:40;;;;;;;7.30;6.73;;;13.20;61.70;;;;;;20644;6864;118235;-76
2022/11/16 03:02:26;;;;;;;7.12;6.62;;;13.00;62.10;;;;;;20414;6864;308491;-75
2022/11/16 03:04:54;;;;;;;6.78;6.37;;;13.00;62.80;;;;;;20433;6864;309082;-76
2022/11/16 03:07:20;;;;;;;5.80;5.40;;;13.20;62.60;;;;;;20099;6864;307729;-76
2022/11/16 03:09:45;;;;;;;5.33;4.90;;;13.30;62.10;;;;;;20430;6864;278918;-76
2022/11/16 03:12:11;;;;;;;4.67;4.27;;;13.40;61.60;;;;;;20649;6864;120727;-76
2022/11/16 03:14:53;;;;;;;4.85;4.55;;;13.20;61.90;;;;;;20631;6865;117465;-76
2022/11/16 03:17:20;;;;;;;4.60;4.20;;;12.90;63.40;;;;;;20628;6865;118918;-76
2022/11/16 03:19:55;;;;;;;4.17;3.77;;;12.50;63.70;;;;;;20566;6865;117949;-76
2022/11/16 03:22:21;;;;;;;4.50;4.20;;;12.30;64.40;;;;;;20656;6865;117578;-76
2022/11/16 03:24:47;;;;;;;4.55;4.25;;;12.10;65.00;;;;;;20629;6865;118710;-76
2022/11/16 03:27:22;;;;;;;5.50;5.00;;;12.00;65.60;;;;;;20416;6865;308115;-76
2022/11/16 03:30:08;;;;;;;4.70;4.40;;;12.20;65.20;;;;;;20616;6865;121692;-76
2022/11/16 03:32:40;;;;;;;4.93;4.63;;;12.20;65.10;;;;;;20633;6865;120317;-77
2022/11/16 03:35:29;;;;;;;4.57;4.27;;;12.00;65.40;;;;;;20612;6865;121555;-75
2022/11/16 03:37:55;;;;;;;4.03;3.73;;;11.90;65.90;;;;;;20628;6865;123002;-76
2022/11/16 03:40:20;;;;;;;4.65;4.40;;;11.80;66.40;;;;;;20433;6865;308462;-76
2022/11/16 03:42:48;;;;;;;4.77;4.37;;;12.00;66.60;;;;;;20648;6865;118852;-76
2022/11/16 03:45:12;;;;;;;4.37;4.18;;;12.00;66.30;;;;;;20647;6865;126817;-76
2022/11/16 03:47:38;;;;;;;4.83;4.03;;;11.90;66.20;;;;;;20662;6863;119126;-76
2022/11/16 03:50:03;;;;;;;5.13;4.83;;;11.80;66.60;;;;;;20442;6864;279396;-76
2022/11/16 03:52:30;;;;;;;4.43;4.13;;;12.10;66.70;;;;;;20662;6864;117164;-76
2022/11/16 03:54:55;;;;;;;4.20;3.90;;;12.10;66.20;;;;;;20454;6864;308533;-76
2022/11/16 03:57:20;;;;;;;4.23;4.03;;;12.30;66.20;;;;;;20643;6864;118156;-76
2022/11/16 03:59:46;;;;;;;4.43;4.13;;;12.30;65.80;;;;;;20445;6864;308556;-76
2022/11/16 04:02:11;;;;;;;4.20;3.90;;;12.50;65.40;;;;;;20651;6864;114984;-76
2022/11/16 04:24:11;;;;;;;7.90;7.13;;;12.10;65.80;;;;;;20653;6864;117518;-75
2022/11/16 04:29:23;;;;;;;8.53;7.93;;;12.10;66.40;;;;;;20612;6865;122013;-74
2022/11/16 04:40:08;;;;;;;9.32;8.73;;;12.30;65.30;;;;;;20442;6865;313416;-77
2022/11/16 04:42:33;;;;;;;8.68;8.05;;;12.60;64.50;;;;;;20436;6865;279123;-81
2022/11/16 04:47:49;;;;;;;6.40;6.00;;;13.00;63.20;;;;;;20637;6865;117735;-82
2022/11/16 04:50:14;;;;;;;5.20;4.90;;;12.70;63.40;;;;;;20661;6865;117442;-83
2022/11/16 04:52:40;;;;;;;6.07;5.40;;;12.40;64.30;;;;;;20667;6865;118446;-81
2022/11/16 04:55:06;;;;;;;4.60;4.30;;;12.20;65.30;;;;;;20670;6865;117934;-79
2022/11/16 04:57:31;;;;;;;3.90;3.70;;;12.00;66.20;;;;;;20642;6865;118003;-80
2022/11/16 04:59:58;;;;;;;3.92;3.62;;;11.90;66.90;;;;;;20671;6863;122229;-82
2022/11/16 05:02:27;;;;;;;4.23;4.03;;;11.80;67.40;;;;;;20448;6864;308513;-80
2022/11/16 05:04:53;;;;;;;4.03;3.83;;;12.00;68.10;;;;;;20423;6864;308081;-80
2022/11/16 05:07:19;;;;;;;4.00;3.80;;;12.40;67.10;;;;;;20391;6864;311182;-78
2022/11/16 05:09:46;;;;;;;3.90;3.70;;;12.80;66.10;;;;;;20452;6864;283788;-80
2022/11/16 05:12:18;;;;;;;4.00;3.80;;;13.00;64.90;;;;;;20451;6864;321684;-80
2022/11/16 05:14:46;;;;;;;3.63;3.43;;;13.00;64.00;;;;;;20670;6864;116563;-79
2022/11/16 05:17:11;;;;;;;7.13;3.30;;;13.00;64.00;;;;;;20658;6864;118284;-80
2022/11/16 05:22:24;;;;;;;3.63;3.43;;;12.80;65.30;;;;;;20692;6864;117677;-80
2022/11/16 05:24:49;;;;;;;3.70;3.50;;;12.60;65.30;;;;;;20680;6864;117217;-78
2022/11/16 05:27:15;;;;;;;3.62;3.33;;;12.40;65.90;;;;;;20653;6864;128258;-78
2022/11/16 05:29:40;;;;;;;4.67;4.37;;;12.20;66.50;;;;;;20452;6864;278281;-80
2022/11/16 05:32:06;;;;;;;3.97;3.77;;;12.40;67.30;;;;;;20672;6864;117256;-76
2022/11/16 05:34:32;;;;;;;4.77;4.03;;;12.40;66.50;;;;;;20661;6864;118894;-79
2022/11/16 05:36:59;;;;;;;5.40;5.10;;;12.40;66.90;;;;;;20455;6864;332173;-78
2022/11/16 05:39:25;;;;;;;5.30;4.90;;;12.30;66.80;;;;;;20425;6865;307638;-77
2022/11/16 05:41:50;;;;;;;4.80;4.40;;;12.70;65.80;;;;;;20658;6865;117985;-76
2022/11/16 05:44:17;;;;;;;5.30;4.90;;;12.70;65.90;;;;;;20449;6865;341328;-76
2022/11/16 05:46:42;;;;;;;5.00;4.67;;;12.70;65.30;;;;;;20656;6865;118408;-77
2022/11/16 05:49:10;;;;;;;5.47;5.07;;;12.60;65.20;;;;;;20422;6865;308906;-78
2022/11/16 05:51:37;;;;;;;5.17;4.70;;;12.70;65.10;;;;;;20573;6881;118086;-76
2022/11/16 05:54:03;;;;;;;5.43;4.93;;;12.60;65.00;;;;;;20599;6881;119579;-78
2022/11/16 05:56:28;;;;;;;5.70;5.33;;;12.40;65.70;;;;;;20384;6880;309596;-76
2022/11/16 05:58:54;;;;;;;6.00;5.50;;;12.50;66.30;;;;;;20601;6880;117949;-76
2022/11/16 06:01:21;;;;;;;6.37;5.97;;;12.50;65.60;;;;;;20389;6879;312464;-76
2022/11/16 06:03:46;;;;;;;6.40;5.53;;;12.60;65.30;;;;;;20661;6864;118575;-76
2022/11/16 06:06:12;;;;;;;6.00;5.60;;;12.50;65.00;;;;;;20658;6864;117806;-76
2022/11/16 06:08:39;;;;;;;6.55;6.15;;;12.30;65.40;;;;;;20439;6864;340317;-77
2022/11/16 06:11:04;;;;;;;6.60;6.20;;;12.40;65.50;;;;;;20457;6862;312905;-77
2022/11/16 06:13:31;;;;;;;6.93;6.43;;;12.60;64.50;;;;;;20436;6863;278930;-74
2022/11/16 06:15:58;;;;;;;6.03;5.63;;;12.70;63.80;;;;;;20661;6863;118393;-75
2022/11/16 06:18:23;;;;;;;5.17;4.83;;;12.70;63.80;;;;;;20660;6863;117751;-74
2022/11/16 06:20:49;;;;;;;5.97;5.47;;;12.40;64.60;;;;;;20450;6863;308088;-74
2022/11/16 06:23:15;;;;;;;5.17;4.77;;;12.40;64.90;;;;;;20649;6864;123224;-76
2022/11/16 06:25:41;;;;;;;5.50;5.10;;;12.40;65.00;;;;;;20449;6864;308542;-73
2022/11/16 06:28:06;;;;;;;4.33;4.13;;;12.50;65.00;;;;;;20664;6864;119920;-75
2022/11/16 06:30:32;;;;;;;4.53;4.22;;;12.40;64.90;;;;;;20455;6864;308401;-77
2022/11/16 06:32:57;;;;;;;3.17;2.97;;;12.50;65.00;;;;;;20665;6864;118249;-74
2022/11/16 06:35:23;;;;;;;3.40;3.20;;;12.50;65.00;;;;;;20439;6864;278290;-75
2022/11/16 06:37:48;;;;;;;3.30;3.10;;;12.60;65.20;;;;;;20450;6864;308739;-78
2022/11/16 06:40:15;;;;;;;3.08;2.87;;;12.70;64.50;;;;;;20455;6864;283500;-79
2022/11/16 06:42:42;;;;;;;3.25;2.90;;;13.00;63.90;;;;;;20474;6864;308081;-75
2022/11/16 06:45:08;;;;;;;2.70;2.50;;;13.10;63.20;;;;;;20662;6864;117403;-74
2022/11/16 06:47:34;;;;;;;2.30;2.20;;;12.90;63.40;;;;;;20656;6864;117340;-76
2022/11/16 06:49:59;;;;;;;2.30;2.20;;;12.60;64.30;;;;;;20451;6864;327653;-74
2022/11/16 06:52:25;;;;;;;2.70;2.50;;;12.70;64.70;;;;;;20447;6864;308996;-73
2022/11/16 06:54:52;;;;;;;2.50;2.40;;;12.90;64.00;;;;;;20452;6864;309300;-73
2022/11/16 06:57:18;;;;;;;2.60;2.40;;;13.10;63.20;;;;;;20644;6864;128291;-74
2022/11/16 06:59:43;;;;;;;3.00;2.80;;;12.90;63.20;;;;;;20456;6864;307067;-76
2022/11/16 07:02:10;;;;;;;3.10;2.90;;;13.10;63.20;;;;;;20450;6864;340921;-83
2022/11/16 07:04:36;;;;;;;3.65;3.45;;;13.30;62.60;;;;;;20446;6864;308165;-74
2022/11/16 07:07:01;;;;;;;3.00;2.80;;;13.30;62.60;;;;;;20670;6864;117641;-74
2022/11/16 07:09:27;;;;;;;3.40;3.10;;;13.10;62.90;;;;;;20437;6864;278560;-74
2022/11/16 07:11:55;;;;;;;2.63;2.53;;;13.00;63.20;;;;;;20658;6864;117437;-74
2022/11/16 07:14:20;;;;;;;3.30;3.10;;;13.00;63.20;;;;;;20449;6864;308024;-76
2022/11/16 07:16:46;;;;;;;3.15;3.05;;;13.10;63.30;;;;;;20452;6864;312851;-74
2022/11/16 07:19:12;;;;;;;3.37;2.50;;;13.30;62.70;;;;;;20633;6864;127160;-75
2022/11/16 07:21:38;;;;;;;2.73;2.63;;;13.10;62.60;;;;;;20657;6864;118675;-74
2022/11/16 07:24:04;;;;;;;2.50;2.40;;;12.90;63.40;;;;;;20663;6862;117151;-75
2022/11/16 07:26:30;;;;;;;2.90;2.70;;;12.70;64.20;;;;;;20442;6862;312797;-74
2022/11/16 07:28:59;;;;;;;2.30;2.20;;;12.80;64.20;;;;;;20600;6877;118522;-75
2022/11/16 07:31:25;;;;;;;2.47;2.37;;;12.70;64.10;;;;;;20410;6862;280473;-75
2022/11/16 07:33:50;;;;;;;2.50;2.40;;;12.90;63.80;;;;;;20454;6862;279608;-75
2022/11/16 07:36:16;;;;;;;2.70;2.60;;;13.20;63.10;;;;;;20492;6848;308108;-74
2022/11/16 07:38:43;;;;;;;2.70;2.50;;;13.50;62.30;;;;;;20616;6862;119199;-74
2022/11/16 07:41:08;;;;;;;2.60;2.50;;;13.40;62.50;;;;;;20662;6864;117132;-75
2022/11/16 07:43:35;;;;;;;3.43;3.27;;;13.20;63.40;;;;;;20633;6868;124866;-74
2022/11/16 07:46:04;;;;;;;3.47;3.17;;;13.00;64.30;;;;;;20441;6868;335659;-74
2022/11/16 07:48:33;;;;;;;3.40;3.20;;;13.20;64.80;;;;;;20444;6866;285906;-75
2022/11/16 07:51:05;;;;;;;3.00;2.80;;;13.70;64.00;;;;;;20439;6866;307424;-75
2022/11/16 07:53:30;;;;;;;4.30;4.00;;;14.10;62.10;;;;;;20417;6866;283876;-75
2022/11/16 07:55:57;;;;;;;3.70;3.50;;;14.50;60.90;;;;;;20446;6856;284020;-75
2022/11/16 07:58:23;;;;;;;3.60;3.30;;;14.60;59.90;;;;;;20462;6856;309187;-75
2022/11/16 08:00:50;;;;;;;3.00;2.85;;;14.70;59.20;;;;;;20682;6856;117371;-76
2022/11/16 08:03:15;;;;;;;2.67;2.57;;;14.50;59.60;;;;;;20657;6856;120832;-74
2022/11/16 08:05:43;;;;;;;2.80;2.60;;;13.80;61.20;;;;;;20687;6856;118790;-74
2022/11/16 08:08:07;;;;;;;2.77;2.67;;;13.80;61.10;;;;;;20662;6856;118797;-73
2022/11/16 08:10:33;;;;;;;3.00;2.80;;;13.60;62.00;;;;;;20480;6856;278636;-74
2022/11/16 08:12:58;;;;;;;2.53;2.43;;;13.60;62.10;;;;;;20692;6856;117672;-73
2022/11/16 08:15:25;;;;;;;3.10;2.80;;;13.60;62.20;;;;;;20460;6856;337300;-73
2022/11/16 08:17:51;;;;;;;5.07;4.77;;;13.70;62.50;;;;;;20474;6856;312134;-72
2022/11/16 08:20:16;;;;;;;5.72;5.32;;;14.00;62.10;;;;;;20692;6856;118102;-73
2022/11/16 08:22:42;;;;;;;7.77;6.03;;;14.00;62.30;;;;;;20687;6856;118411;-73
2022/11/16 08:25:07;;;;;;;4.63;4.33;;;13.90;63.40;;;;;;20715;6856;117639;-73
2022/11/16 08:27:33;;;;;;;3.37;3.17;;;13.90;64.20;;;;;;20458;6856;313167;-73
2022/11/16 08:29:58;;;;;;;3.03;2.87;;;14.10;63.30;;;;;;20477;6856;278186;-73
2022/11/16 08:32:24;;;;;;;2.60;2.40;;;14.40;61.10;;;;;;20473;6856;337260;-73
2022/11/16 08:34:50;;;;;;;2.50;2.40;;;14.70;59.60;;;;;;20476;6854;278748;-73
2022/11/16 08:37:15;;;;;;;3.70;3.50;;;14.90;58.70;;;;;;20671;6855;117575;-73
2022/11/16 08:39:41;;;;;;;5.50;5.03;;;14.60;60.00;;;;;;20478;6856;279304;-73
2022/11/16 08:42:08;;;;;;;5.80;5.40;;;14.60;60.00;;;;;;20476;6856;309402;-73
2022/11/16 08:44:33;;;;;;;5.90;5.40;;;14.80;60.50;;;;;;20476;6856;308613;-73
2022/11/16 08:46:59;;;;;;;6.10;5.40;;;15.00;60.40;;;;;;20692;6856;118330;-73
2022/11/16 08:49:24;;;;;;;6.17;5.23;;;14.80;60.60;;;;;;20463;6856;282649;-73
2022/11/16 08:51:51;;;;;;;5.65;5.25;;;14.60;60.90;;;;;;20682;6856;118753;-73
2022/11/16 08:54:16;;;;;;;5.80;5.40;;;14.50;60.80;;;;;;20690;6856;117614;-73
2022/11/16 08:56:42;;;;;;;5.30;5.00;;;14.20;61.60;;;;;;20474;6856;311222;-73
2022/11/16 08:59:07;;;;;;;4.40;4.10;;;14.30;61.70;;;;;;20693;6856;118331;-73
2022/11/16 09:01:33;;;;;;;4.50;4.10;;;14.30;62.00;;;;;;20666;6856;117237;-72
2022/11/16 09:03:58;;;;;;;3.67;3.47;;;14.10;62.50;;;;;;20472;6856;338570;-73
2022/11/16 09:06:24;;;;;;;3.53;3.33;;;14.20;61.80;;;;;;20472;6856;278272;-73
2022/11/16 09:08:50;;;;;;;3.33;2.93;;;14.60;60.80;;;;;;20476;6856;311754;-73
2022/11/16 09:11:15;;;;;;;3.30;3.20;;;15.00;60.00;;;;;;20458;6856;308767;-73
2022/11/16 09:13:41;;;;;;;2.75;2.60;;;15.30;59.70;;;;;;20472;6856;308286;-73
2022/11/16 09:16:07;;;;;;;2.40;2.20;;;15.70;56.90;;;;;;20467;6856;338564;-73
2022/11/16 09:18:33;;;;;;;2.33;2.17;;;15.70;56.90;;;;;;20683;6856;117618;-73
2022/11/16 09:20:58;;;;;;;2.33;2.22;;;15.60;57.20;;;;;;20469;6856;282265;-73
2022/11/16 09:23:24;;;;;;;3.70;2.67;;;15.60;57.90;;;;;;20667;6856;118411;-73
2022/11/16 09:25:51;;;;;;;2.50;2.40;;;15.50;58.40;;;;;;20685;6856;117365;-73
2022/11/16 09:28:16;;;;;;;2.53;2.43;;;15.20;59.20;;;;;;20470;6856;283355;-73
2022/11/16 09:30:42;;;;;;;3.07;2.70;;;15.30;58.40;;;;;;20460;6856;287723;-75
2022/11/16 09:33:07;;;;;;;4.17;3.87;;;15.60;58.40;;;;;;20686;6856;117656;-75
2022/11/16 09:35:33;;;;;;;4.37;4.07;;;15.60;58.40;;;;;;20672;6856;123255;-75
2022/11/16 09:37:59;;;;;;;3.43;3.23;;;15.40;58.90;;;;;;20478;6856;303384;-75
2022/11/16 09:40:37;;;;;;;2.20;2.03;;;15.50;58.00;;;;;;20685;6856;123151;-74
2022/11/16 09:43:19;;;;;;;2.80;2.60;;;15.40;57.90;;;;;;20469;6856;286287;-75
2022/11/16 09:45:48;;;;;;;2.47;2.37;;;15.50;57.30;;;;;;20472;6854;315045;-75
2022/11/16 09:48:14;;;;;;;2.70;2.00;;;15.60;57.40;;;;;;20669;6855;120905;-74
2022/11/16 09:50:43;;;;;;;2.07;1.90;;;15.50;57.50;;;;;;20678;6856;118280;-75
2022/11/16 09:53:35;;;;;;;1.70;1.70;;;15.30;58.40;;;;;;20677;6856;117045;-74
2022/11/16 09:56:19;;;;;;;2.08;1.95;;;15.20;59.30;;;;;;20258;6856;307735;-74
2022/11/16 09:58:48;;;;;;;1.55;1.45;;;15.40;58.50;;;;;;20445;6856;307940;-74
2022/11/16 10:01:27;;;;;;;2.20;2.00;;;15.90;57.10;;;;;;20441;6856;337768;-74
2022/11/16 10:03:53;;;;;;;1.83;1.40;;;16.20;56.20;;;;;;20689;6856;118512;-74
2022/11/16 10:06:21;;;;;;;1.20;1.13;;;16.10;56.30;;;;;;20673;6856;118467;-75
2022/11/16 10:08:50;;;;;;;1.87;0.90;;;16.00;57.00;;;;;;20666;6856;117260;-74
2022/11/16 10:11:40;;;;;;;1.30;1.10;;;16.00;55.20;;;;;;20447;6856;311914;-75
2022/11/16 10:14:12;;;;;;;1.60;1.20;;;15.90;55.10;;;;;;20466;6856;278064;-76
2022/11/16 10:16:44;;;;;;;1.77;1.02;;;16.20;53.00;;;;;;20473;6856;278479;-74
2022/11/16 10:19:22;;;;;;;1.93;0.90;;;16.60;52.60;;;;;;20465;6856;278943;-74
2022/11/16 10:21:54;;;;;;;2.13;0.80;;;16.60;52.50;;;;;;20648;6856;117385;-74
2022/11/16 10:24:40;;;;;;;1.15;1.02;;;16.50;53.10;;;;;;20456;6856;338325;-74
2022/11/16 10:27:26;;;;;;;1.63;0.90;;;16.50;53.70;;;;;;20352;6856;120720;-74
2022/11/16 10:30:12;;;;;;;2.20;1.03;;;16.50;53.70;;;;;;20693;6856;117391;-75
2022/11/16 10:32:54;;;;;;;0.73;0.73;;;16.40;54.30;;;;;;20688;6856;117446;-76
2022/11/16 10:35:32;;;;;;;2.47;0.90;;;16.30;55.00;;;;;;20612;6856;122018;-73
2022/11/16 10:37:59;;;;;;;1.80;0.80;;;16.30;55.20;;;;;;20682;6856;121912;-73
2022/11/16 10:40:27;;;;;;;0.93;0.83;;;16.10;55.20;;;;;;20676;6856;118778;-73
2022/11/16 10:42:53;;;;;;;1.43;0.90;;;16.10;55.40;;;;;;20462;6856;278373;-73
2022/11/16 10:45:20;;;;;;;1.70;0.95;;;16.20;52.40;;;;;;20423;6856;280643;-73
2022/11/16 10:47:52;;;;;;;1.30;0.87;;;16.50;51.50;;;;;;20467;6856;278871;-73
2022/11/16 10:50:30;;;;;;;3.93;1.60;;;16.80;50.60;;;;;;20474;6856;278350;-76
2022/11/16 10:52:53;;;;;;;2.12;1.00;;;17.00;50.20;;;;;;20458;6856;338077;-72
2022/11/16 10:55:19;;;;;;;1.00;0.90;;;17.10;49.40;;;;;;20451;6856;320398;-73
2022/11/16 10:57:51;;;;;;;1.73;0.82;;;17.10;48.30;;;;;;20474;6854;283170;-74
2022/11/16 11:00:17;;;;;;;1.93;1.00;;;17.10;49.40;;;;;;20468;6855;284991;-73
2022/11/16 11:02:44;;;;;;;2.45;0.90;;;17.00;49.00;;;;;;20413;6856;302725;-74
2022/11/16 11:05:15;;;;;;;2.08;0.77;;;16.70;49.50;;;;;;20668;6856;118974;-73
2022/11/16 11:07:42;;;;;;;1.30;0.80;;;16.60;48.90;;;;;;20683;6856;117328;-73
2022/11/16 11:10:30;;;;;;;1.25;0.90;;;16.20;49.90;;;;;;20453;6856;338050;-72
2022/11/16 11:13:09;;;;;;;1.17;0.80;;;16.10;48.90;;;;;;20455;6856;308317;-74
2022/11/16 11:15:34;;;;;;;2.20;0.90;;;16.20;47.00;;;;;;20414;6856;277954;-73
2022/11/16 11:18:22;;;;;;;4.32;0.80;;;16.20;46.00;;;;;;20654;6856;118202;-74
2022/11/16 11:20:49;;;;;;;1.60;0.77;;;15.40;49.10;;;;;;20675;6856;117256;-74
2022/11/16 11:23:20;;;;;;;0.90;0.70;;;15.40;48.40;;;;;;20042;6856;308773;-76
2022/11/16 11:25:56;;;;;;;6.93;1.30;;;15.30;47.40;;;;;;20684;6856;117241;-74
2022/11/16 11:28:25;;;;;;;2.13;0.90;;;15.10;48.40;;;;;;20701;6856;117599;-76
2022/11/16 11:30:57;;;;;;;2.63;0.60;;;14.90;49.40;;;;;;20683;6856;123873;-73
2022/11/16 11:33:22;;;;;;;1.70;0.67;;;14.70;50.20;;;;;;20678;6856;118241;-73
2022/11/16 11:35:55;;;;;;;1.40;0.70;;;14.60;50.90;;;;;;20684;6856;118790;-73
2022/11/16 11:38:21;;;;;;;2.33;0.70;;;14.50;51.40;;;;;;20379;6856;282871;-73
2022/11/16 11:40:46;;;;;;;1.35;0.70;;;14.80;49.90;;;;;;20468;6856;295812;-75
2022/11/16 11:43:12;;;;;;;3.28;0.90;;;15.20;48.60;;;;;;20446;6856;308899;-74
2022/11/16 11:45:52;;;;;;;1.45;0.73;;;15.60;48.20;;;;;;20422;6856;338341;-75
2022/11/16 11:48:24;;;;;;;1.93;0.67;;;15.90;47.10;;;;;;20520;6856;117761;-75
2022/11/16 11:50:52;;;;;;;1.33;0.70;;;15.80;48.10;;;;;;20686;6856;117209;-74
2022/11/16 11:53:34;;;;;;;1.10;0.63;;;15.60;48.90;;;;;;20664;6856;121736;-72
2022/11/16 11:56:00;;;;;;;1.13;0.70;;;15.40;49.70;;;;;;20461;6856;309441;-73
2022/11/16 11:58:29;;;;;;;1.10;0.65;;;15.60;48.70;;;;;;20688;6856;122444;-74
2022/11/16 12:01:21;;;;;;;2.10;0.83;;;15.80;48.10;;;;;;20459;6856;308692;-74
2022/11/16 12:03:53;;;;;;;1.37;0.77;;;15.80;48.10;;;;;;20690;6856;117758;-74
2022/11/16 12:06:42;;;;;;;1.08;0.70;;;15.90;48.90;;;;;;20477;6856;337336;-72
2022/11/16 12:09:15;;;;;;;1.97;0.70;;;16.40;47.00;;;;;;20468;6855;278759;-75
2022/11/16 12:11:50;;;;;;;1.50;0.77;;;16.40;47.00;;;;;;20255;6856;308728;-74
2022/11/16 12:14:32;;;;;;;2.43;1.30;;;16.70;46.70;;;;;;20222;6856;117344;-72
2022/11/16 12:17:04;;;;;;;2.27;1.00;;;16.60;47.80;;;;;;20686;6856;117281;-73
2022/11/16 12:19:58;;;;;;;3.07;0.97;;;16.50;48.60;;;;;;20403;6856;307785;-71
2022/11/16 12:22:42;;;;;;;1.53;0.77;;;16.60;47.40;;;;;;20450;6856;279607;-74
2022/11/16 12:25:35;;;;;;;1.73;0.80;;;16.90;45.80;;;;;;20477;6856;278652;-71
2022/11/16 12:28:20;;;;;;;1.30;0.60;;;17.20;45.50;;;;;;20695;6856;117353;-72
2022/11/16 12:31:05;;;;;;;1.37;0.70;;;17.10;46.80;;;;;;20676;6856;117405;-72
2022/11/16 12:33:40;;;;;;;1.43;0.90;;;16.90;47.80;;;;;;20468;6856;278162;-72
2022/11/16 12:36:26;;;;;;;1.98;0.85;;;17.00;45.90;;;;;;20468;6856;338449;-72
2022/11/16 12:39:15;;;;;;;1.20;0.70;;;17.20;44.70;;;;;;20479;6856;279539;-74
2022/11/16 12:42:07;;;;;;;2.20;0.70;;;17.40;44.60;;;;;;20681;6856;117387;-72
2022/11/16 12:44:32;;;;;;;1.90;0.50;;;17.20;45.90;;;;;;20681;6856;117292;-72
2022/11/16 12:47:04;;;;;;;2.37;1.10;;;17.00;47.10;;;;;;20214;6856;317222;-73
2022/11/16 12:49:43;;;;;;;2.17;1.07;;;17.00;45.70;;;;;;20439;6856;308152;-74
2022/11/16 12:52:15;;;;;;;1.50;0.77;;;17.30;45.60;;;;;;20478;6856;278538;-75
2022/11/16 12:55:10;;;;;;;2.40;0.57;;;17.60;44.20;;;;;;20674;6856;117172;-76
2022/11/16 12:57:58;;;;;;;2.67;0.53;;;17.60;45.30;;;;;;20632;6856;118453;-74
2022/11/16 13:00:23;;;;;;;1.90;0.97;;;17.30;47.00;;;;;;20654;6856;117273;-75
2022/11/16 13:03:03;;;;;;;1.23;0.60;;;16.90;48.10;;;;;;20684;6856;118093;-74
2022/11/16 13:05:41;;;;;;;1.10;0.60;;;16.90;48.00;;;;;;20664;6856;146156;-74
2022/11/16 13:08:13;;;;;;;1.37;0.90;;;16.80;48.60;;;;;;20460;6856;281677;-74
2022/11/16 13:10:41;;;;;;;1.10;0.60;;;16.90;47.10;;;;;;20156;6856;341764;-74
2022/11/16 13:13:04;;;;;;;1.25;0.70;;;17.20;46.10;;;;;;20677;6856;118002;-74
2022/11/16 13:15:33;;;;;;;1.83;0.68;;;17.20;46.80;;;;;;20442;6856;329805;-74
2022/11/16 13:17:59;;;;;;;1.67;0.83;;;17.30;44.00;;;;;;20684;6856;118803;-74
2022/11/16 13:20:34;;;;;;;1.87;0.70;;;17.10;45.30;;;;;;20687;6854;117258;-74
2022/11/16 13:23:05;;;;;;;1.77;0.87;;;16.80;46.30;;;;;;20678;6855;119026;-74
2022/11/16 13:25:51;;;;;;;1.70;0.70;;;16.60;47.00;;;;;;20636;6856;117340;-74
2022/11/16 13:28:48;;;;;;;2.53;1.27;;;16.60;45.60;;;;;;20459;6856;311819;-74
2022/11/16 13:31:20;;;;;;;2.10;0.93;;;17.00;44.80;;;;;;19420;7198;351719;-74